sensor_id;sensor_type;location;lat;lon;timestamp;temperature;humidity
30379;DHT22;17168;49.164;9.060;2023-07-16T00:00:16;22.40;99.90
30379;DHT22;17168;49.164;9.060;2023-07-16T00:02:51;22.10;99.90
30379;DHT22;17168;49.164;9.060;2023-07-16T00:05:23;21.70;99.90
30379;DHT22;17168;49.164;9.060;2023-07-16T00:07:55;21.50;99.90
30379;DHT22;17168;49.164;9.060;2023-07-16T00:10:34;21.20;99.90
30379;DHT22;17168;49.164;9.060;2023-07-16T00:13:06;21.10;99.90
30379;DHT22;17168;49.164;9.060;2023-07-16T00:15:39;20.90;99.90
30379;DHT22;17168;49.164;9.060;2023-07-16T00:18:11;20.80;99.90
30379;DHT22;17168;49.164;9.060;2023-07-16T00:20:43;20.60;99.90
30379;DHT22;17168;49.164;9.060;2023-07-16T00:23:16;20.50;99.90
30379;DHT22;17168;49.164;9.060;2023-07-16T00:25:51;20.40;99.90
30379;DHT22;17168;49.164;9.060;2023-07-16T00:28:23;20.30;99.90
30379;DHT22;17168;49.164;9.060;2023-07-16T00:30:55;20.20;99.90
30379;DHT22;17168;49.164;9.060;2023-07-16T00:33:27;20.20;99.90
30379;DHT22;17168;49.164;9.060;2023-07-16T00:35:59;20.10;99.90
30379;DHT22;17168;49.164;9.060;2023-07-16T00:38:32;20.10;99.90
30379;DHT22;17168;49.164;9.060;2023-07-16T00:41:07;20.10;99.90
30379;DHT22;17168;49.164;9.060;2023-07-16T00:43:39;20.10;99.90
30379;DHT22;17168;49.164;9.060;2023-07-16T00:46:12;20.00;99.90
30379;DHT22;17168;49.164;9.060;2023-07-16T00:48:45;20.00;99.90
30379;DHT22;17168;49.164;9.060;2023-07-16T00:51:18;20.00;99.90
30379;DHT22;17168;49.164;9.060;2023-07-16T00:53:50;19.90;99.90
30379;DHT22;17168;49.164;9.060;2023-07-16T00:56:25;19.90;99.90
30379;DHT22;17168;49.164;9.060;2023-07-16T00:58:58;19.80;99.90
30379;DHT22;17168;49.164;9.060;2023-07-16T01:01:30;19.80;99.90
30379;DHT22;17168;49.164;9.060;2023-07-16T01:04:03;19.70;99.90
30379;DHT22;17168;49.164;9.060;2023-07-16T01:06:39;19.70;99.90
30379;DHT22;17168;49.164;9.060;2023-07-16T01:09:15;19.60;99.90
30379;DHT22;17168;49.164;9.060;2023-07-16T01:11:52;19.60;99.90
30379;DHT22;17168;49.164;9.060;2023-07-16T01:14:25;19.60;99.90
30379;DHT22;17168;49.164;9.060;2023-07-16T01:16:57;19.50;99.90
30379;DHT22;17168;49.164;9.060;2023-07-16T01:19:31;19.50;99.90
30379;DHT22;17168;49.164;9.060;2023-07-16T01:22:13;19.30;99.90
30379;DHT22;17168;49.164;9.060;2023-07-16T01:25:00;19.30;99.90
30379;DHT22;17168;49.164;9.060;2023-07-16T01:27:57;19.20;99.90
30379;DHT22;17168;49.164;9.060;2023-07-16T01:30:38;19.10;99.90
30379;DHT22;17168;49.164;9.060;2023-07-16T01:33:12;19.10;99.90
30379;DHT22;17168;49.164;9.060;2023-07-16T01:35:45;19.00;99.90
30379;DHT22;17168;49.164;9.060;2023-07-16T01:38:18;19.00;99.90
30379;DHT22;17168;49.164;9.060;2023-07-16T01:40:52;19.00;99.90
30379;DHT22;17168;49.164;9.060;2023-07-16T01:43:25;18.90;99.90
30379;DHT22;17168;49.164;9.060;2023-07-16T01:46:00;18.90;99.90
30379;DHT22;17168;49.164;9.060;2023-07-16T01:48:33;18.90;99.90
30379;DHT22;17168;49.164;9.060;2023-07-16T01:51:06;18.80;99.90
30379;DHT22;17168;49.164;9.060;2023-07-16T01:53:38;18.80;99.90
30379;DHT22;17168;49.164;9.060;2023-07-16T01:56:10;18.80;99.90
30379;DHT22;17168;49.164;9.060;2023-07-16T01:58:42;18.70;99.90
30379;DHT22;17168;49.164;9.060;2023-07-16T02:01:17;18.70;99.90
30379;DHT22;17168;49.164;9.060;2023-07-16T02:03:49;18.70;99.90
30379;DHT22;17168;49.164;9.060;2023-07-16T02:06:21;18.70;99.90
30379;DHT22;17168;49.164;9.060;2023-07-16T02:08:54;18.70;99.90
30379;DHT22;17168;49.164;9.060;2023-07-16T02:11:26;18.70;99.90
30379;DHT22;17168;49.164;9.060;2023-07-16T02:13:58;18.70;99.90
30379;DHT22;17168;49.164;9.060;2023-07-16T02:16:33;18.70;99.90
30379;DHT22;17168;49.164;9.060;2023-07-16T02:19:05;18.70;99.90
30379;DHT22;17168;49.164;9.060;2023-07-16T02:21:40;18.70;99.90
30379;DHT22;17168;49.164;9.060;2023-07-16T02:24:12;18.70;99.90
30379;DHT22;17168;49.164;9.060;2023-07-16T02:26:45;18.70;99.90
30379;DHT22;17168;49.164;9.060;2023-07-16T02:29:17;18.70;99.90
30379;DHT22;17168;49.164;9.060;2023-07-16T02:31:52;18.70;99.90
30379;DHT22;17168;49.164;9.060;2023-07-16T02:34:24;18.70;99.90
30379;DHT22;17168;49.164;9.060;2023-07-16T02:36:56;18.70;99.90
30379;DHT22;17168;49.164;9.060;2023-07-16T02:39:28;18.70;99.90
30379;DHT22;17168;49.164;9.060;2023-07-16T02:42:00;18.70;99.90
30379;DHT22;17168;49.164;9.060;2023-07-16T02:44:33;18.70;99.90
30379;DHT22;17168;49.164;9.060;2023-07-16T02:47:07;18.70;99.90
30379;DHT22;17168;49.164;9.060;2023-07-16T02:49:40;18.70;99.90
30379;DHT22;17168;49.164;9.060;2023-07-16T02:52:12;18.70;99.90
30379;DHT22;17168;49.164;9.060;2023-07-16T02:54:44;18.60;99.90
30379;DHT22;17168;49.164;9.060;2023-07-16T02:57:16;18.60;99.90
30379;DHT22;17168;49.164;9.060;2023-07-16T02:59:49;18.60;99.90
30379;DHT22;17168;49.164;9.060;2023-07-16T03:02:23;18.60;99.90
30379;DHT22;17168;49.164;9.060;2023-07-16T03:04:56;18.60;99.90
30379;DHT22;17168;49.164;9.060;2023-07-16T03:07:28;18.50;99.90
30379;DHT22;17168;49.164;9.060;2023-07-16T03:10:00;18.50;99.90
30379;DHT22;17168;49.164;9.060;2023-07-16T03:12:32;18.50;99.90
30379;DHT22;17168;49.164;9.060;2023-07-16T03:15:06;18.50;99.90
30379;DHT22;17168;49.164;9.060;2023-07-16T03:17:41;18.50;99.90
30379;DHT22;17168;49.164;9.060;2023-07-16T03:20:13;18.40;99.90
30379;DHT22;17168;49.164;9.060;2023-07-16T03:22:45;18.40;99.90
30379;DHT22;17168;49.164;9.060;2023-07-16T03:25:18;18.40;99.90
30379;DHT22;17168;49.164;9.060;2023-07-16T03:27:50;18.40;99.90
30379;DHT22;17168;49.164;9.060;2023-07-16T03:30:22;18.40;99.90
30379;DHT22;17168;49.164;9.060;2023-07-16T03:32:57;18.40;99.90
30379;DHT22;17168;49.164;9.060;2023-07-16T03:35:29;18.40;99.90
30379;DHT22;17168;49.164;9.060;2023-07-16T03:38:02;18.40;99.90
30379;DHT22;17168;49.164;9.060;2023-07-16T03:40:34;18.40;99.90
30379;DHT22;17168;49.164;9.060;2023-07-16T03:43:06;18.40;99.90
30379;DHT22;17168;49.164;9.060;2023-07-16T03:45:38;18.40;99.90
30379;DHT22;17168;49.164;9.060;2023-07-16T03:48:13;18.40;99.90
30379;DHT22;17168;49.164;9.060;2023-07-16T03:50:46;18.40;99.90
30379;DHT22;17168;49.164;9.060;2023-07-16T03:53:18;18.40;99.90
30379;DHT22;17168;49.164;9.060;2023-07-16T03:55:50;18.40;99.90
30379;DHT22;17168;49.164;9.060;2023-07-16T03:58:23;18.40;99.90
30379;DHT22;17168;49.164;9.060;2023-07-16T04:00:55;18.40;99.90
30379;DHT22;17168;49.164;9.060;2023-07-16T04:03:30;18.40;99.90
30379;DHT22;17168;49.164;9.060;2023-07-16T04:06:04;18.40;99.90
30379;DHT22;17168;49.164;9.060;2023-07-16T04:08:36;18.40;99.90
30379;DHT22;17168;49.164;9.060;2023-07-16T04:11:09;18.40;99.90
30379;DHT22;17168;49.164;9.060;2023-07-16T04:13:41;18.40;99.90
30379;DHT22;17168;49.164;9.060;2023-07-16T04:16:13;18.30;99.90
30379;DHT22;17168;49.164;9.060;2023-07-16T04:18:49;18.30;99.90
30379;DHT22;17168;49.164;9.060;2023-07-16T04:21:21;18.30;99.90
30379;DHT22;17168;49.164;9.060;2023-07-16T04:23:53;18.30;99.90
30379;DHT22;17168;49.164;9.060;2023-07-16T04:26:25;18.30;99.90
30379;DHT22;17168;49.164;9.060;2023-07-16T04:28:57;18.30;99.90
30379;DHT22;17168;49.164;9.060;2023-07-16T04:31:30;18.30;99.90
30379;DHT22;17168;49.164;9.060;2023-07-16T04:34:05;18.30;99.90
30379;DHT22;17168;49.164;9.060;2023-07-16T04:36:38;18.40;99.90
30379;DHT22;17168;49.164;9.060;2023-07-16T04:39:11;18.30;99.90
30379;DHT22;17168;49.164;9.060;2023-07-16T04:41:43;18.40;99.90
30379;DHT22;17168;49.164;9.060;2023-07-16T04:44:15;18.40;99.90
30379;DHT22;17168;49.164;9.060;2023-07-16T04:46:47;18.40;99.90
30379;DHT22;17168;49.164;9.060;2023-07-16T04:49:22;18.40;99.90
30379;DHT22;17168;49.164;9.060;2023-07-16T04:51:54;18.40;99.90
30379;DHT22;17168;49.164;9.060;2023-07-16T04:54:26;18.40;99.90
30379;DHT22;17168;49.164;9.060;2023-07-16T04:56:59;18.40;99.90
30379;DHT22;17168;49.164;9.060;2023-07-16T04:59:31;18.40;99.90
30379;DHT22;17168;49.164;9.060;2023-07-16T05:02:05;18.40;99.90
30379;DHT22;17168;49.164;9.060;2023-07-16T05:04:40;18.40;99.90
30379;DHT22;17168;49.164;9.060;2023-07-16T05:07:12;18.50;99.90
30379;DHT22;17168;49.164;9.060;2023-07-16T05:09:44;18.40;99.90
30379;DHT22;17168;49.164;9.060;2023-07-16T05:12:16;18.40;99.90
30379;DHT22;17168;49.164;9.060;2023-07-16T05:14:48;18.50;99.90
30379;DHT22;17168;49.164;9.060;2023-07-16T05:17:20;18.50;99.90
30379;DHT22;17168;49.164;9.060;2023-07-16T05:19:56;18.50;99.90
30379;DHT22;17168;49.164;9.060;2023-07-16T05:22:29;18.50;99.90
30379;DHT22;17168;49.164;9.060;2023-07-16T05:25:01;18.50;99.90
30379;DHT22;17168;49.164;9.060;2023-07-16T05:27:33;18.50;99.90
30379;DHT22;17168;49.164;9.060;2023-07-16T05:30:08;18.50;99.90
30379;DHT22;17168;49.164;9.060;2023-07-16T05:32:40;18.50;99.90
30379;DHT22;17168;49.164;9.060;2023-07-16T05:35:16;18.60;99.90
30379;DHT22;17168;49.164;9.060;2023-07-16T05:37:48;18.60;99.90
30379;DHT22;17168;49.164;9.060;2023-07-16T05:40:20;18.60;99.90
30379;DHT22;17168;49.164;9.060;2023-07-16T05:42:52;18.60;99.90
30379;DHT22;17168;49.164;9.060;2023-07-16T05:45:24;18.60;99.90
30379;DHT22;17168;49.164;9.060;2023-07-16T05:47:56;18.60;99.90
30379;DHT22;17168;49.164;9.060;2023-07-16T05:50:31;18.70;99.90
30379;DHT22;17168;49.164;9.060;2023-07-16T05:53:04;18.70;99.90
30379;DHT22;17168;49.164;9.060;2023-07-16T05:55:36;18.70;99.90
30379;DHT22;17168;49.164;9.060;2023-07-16T05:58:08;18.70;99.90
30379;DHT22;17168;49.164;9.060;2023-07-16T06:00:40;18.70;99.90
30379;DHT22;17168;49.164;9.060;2023-07-16T06:03:13;18.70;99.90
30379;DHT22;17168;49.164;9.060;2023-07-16T06:05:48;18.80;99.90
30379;DHT22;17168;49.164;9.060;2023-07-16T06:08:20;18.80;99.90
30379;DHT22;17168;49.164;9.060;2023-07-16T06:10:53;18.80;99.90
30379;DHT22;17168;49.164;9.060;2023-07-16T06:13:25;18.80;99.90
30379;DHT22;17168;49.164;9.060;2023-07-16T06:15:57;18.80;99.90
30379;DHT22;17168;49.164;9.060;2023-07-16T06:18:29;18.80;99.90
30379;DHT22;17168;49.164;9.060;2023-07-16T06:21:04;18.80;99.90
30379;DHT22;17168;49.164;9.060;2023-07-16T06:23:36;18.80;99.90
30379;DHT22;17168;49.164;9.060;2023-07-16T06:26:08;18.80;99.90
30379;DHT22;17168;49.164;9.060;2023-07-16T06:28:41;18.80;99.90
30379;DHT22;17168;49.164;9.060;2023-07-16T06:31:13;18.90;99.90
30379;DHT22;17168;49.164;9.060;2023-07-16T06:33:45;18.80;99.90
30379;DHT22;17168;49.164;9.060;2023-07-16T06:36:21;18.90;99.90
30379;DHT22;17168;49.164;9.060;2023-07-16T06:38:53;18.90;99.90
30379;DHT22;17168;49.164;9.060;2023-07-16T06:41:25;18.90;99.90
30379;DHT22;17168;49.164;9.060;2023-07-16T06:43:57;18.80;99.90
30379;DHT22;17168;49.164;9.060;2023-07-16T06:46:29;18.90;99.90
30379;DHT22;17168;49.164;9.060;2023-07-16T06:49:02;18.80;99.90
30379;DHT22;17168;49.164;9.060;2023-07-16T06:51:36;18.90;99.90
30379;DHT22;17168;49.164;9.060;2023-07-16T06:54:09;18.90;99.90
30379;DHT22;17168;49.164;9.060;2023-07-16T06:56:41;18.90;99.90
30379;DHT22;17168;49.164;9.060;2023-07-16T06:59:13;18.80;99.90
30379;DHT22;17168;49.164;9.060;2023-07-16T07:01:45;18.80;99.90
30379;DHT22;17168;49.164;9.060;2023-07-16T07:04:17;18.80;99.90
30379;DHT22;17168;49.164;9.060;2023-07-16T07:06:53;18.80;99.90
30379;DHT22;17168;49.164;9.060;2023-07-16T07:09:25;18.90;99.90
30379;DHT22;17168;49.164;9.060;2023-07-16T07:11:57;18.90;99.90
30379;DHT22;17168;49.164;9.060;2023-07-16T07:14:29;18.90;99.90
30379;DHT22;17168;49.164;9.060;2023-07-16T07:17:01;19.00;99.90
30379;DHT22;17168;49.164;9.060;2023-07-16T07:19:34;19.00;99.90
30379;DHT22;17168;49.164;9.060;2023-07-16T07:22:08;19.10;99.90
30379;DHT22;17168;49.164;9.060;2023-07-16T07:24:41;19.20;99.90
30379;DHT22;17168;49.164;9.060;2023-07-16T07:27:13;19.20;99.60
30379;DHT22;17168;49.164;9.060;2023-07-16T07:29:45;19.20;99.70
30379;DHT22;17168;49.164;9.060;2023-07-16T07:32:19;19.30;99.30
30379;DHT22;17168;49.164;9.060;2023-07-16T07:34:51;19.40;97.80
30379;DHT22;17168;49.164;9.060;2023-07-16T07:37:26;19.40;97.20
30379;DHT22;17168;49.164;9.060;2023-07-16T07:39:59;19.40;97.40
30379;DHT22;17168;49.164;9.060;2023-07-16T07:42:31;19.50;98.50
30379;DHT22;17168;49.164;9.060;2023-07-16T07:45:04;19.50;99.80
30379;DHT22;17168;49.164;9.060;2023-07-16T07:47:36;19.60;98.30
30379;DHT22;17168;49.164;9.060;2023-07-16T07:50:09;19.70;98.50
30379;DHT22;17168;49.164;9.060;2023-07-16T07:52:44;19.70;96.10
30379;DHT22;17168;49.164;9.060;2023-07-16T07:55:17;19.80;94.10
30379;DHT22;17168;49.164;9.060;2023-07-16T07:57:49;19.90;92.30
30379;DHT22;17168;49.164;9.060;2023-07-16T08:00:21;19.90;92.70
30379;DHT22;17168;49.164;9.060;2023-07-16T08:02:54;19.90;91.70
30379;DHT22;17168;49.164;9.060;2023-07-16T08:05:26;20.00;91.10
30379;DHT22;17168;49.164;9.060;2023-07-16T08:08:01;20.00;90.90
30379;DHT22;17168;49.164;9.060;2023-07-16T08:10:33;20.00;90.80
30379;DHT22;17168;49.164;9.060;2023-07-16T08:13:05;20.10;90.40
30379;DHT22;17168;49.164;9.060;2023-07-16T08:15:37;20.10;90.30
30379;DHT22;17168;49.164;9.060;2023-07-16T08:18:10;20.20;90.50
30379;DHT22;17168;49.164;9.060;2023-07-16T08:20:42;20.30;89.60
30379;DHT22;17168;49.164;9.060;2023-07-16T08:23:17;20.30;88.10
30379;DHT22;17168;49.164;9.060;2023-07-16T08:25:51;20.30;90.00
30379;DHT22;17168;49.164;9.060;2023-07-16T08:28:24;20.40;87.80
30379;DHT22;17168;49.164;9.060;2023-07-16T08:30:56;20.50;87.70
30379;DHT22;17168;49.164;9.060;2023-07-16T08:33:28;20.50;85.60
30379;DHT22;17168;49.164;9.060;2023-07-16T08:36:00;20.40;85.50
30379;DHT22;17168;49.164;9.060;2023-07-16T08:38:35;20.40;87.10
30379;DHT22;17168;49.164;9.060;2023-07-16T08:41:08;20.50;88.30
30379;DHT22;17168;49.164;9.060;2023-07-16T08:43:40;20.50;88.00
30379;DHT22;17168;49.164;9.060;2023-07-16T08:46:14;20.60;87.50
30379;DHT22;17168;49.164;9.060;2023-07-16T08:48:48;20.70;85.80
30379;DHT22;17168;49.164;9.060;2023-07-16T08:51:21;20.80;84.20
30379;DHT22;17168;49.164;9.060;2023-07-16T08:53:56;20.80;82.80
30379;DHT22;17168;49.164;9.060;2023-07-16T08:56:28;20.90;82.00
30379;DHT22;17168;49.164;9.060;2023-07-16T08:59:01;20.90;81.80
30379;DHT22;17168;49.164;9.060;2023-07-16T09:01:33;20.90;79.50
30379;DHT22;17168;49.164;9.060;2023-07-16T09:04:06;21.00;80.70
30379;DHT22;17168;49.164;9.060;2023-07-16T09:06:38;21.00;80.50
30379;DHT22;17168;49.164;9.060;2023-07-16T09:09:19;21.00;80.70
30379;DHT22;17168;49.164;9.060;2023-07-16T09:11:52;21.10;80.90
30379;DHT22;17168;49.164;9.060;2023-07-16T09:14:24;21.10;79.80
30379;DHT22;17168;49.164;9.060;2023-07-16T09:16:57;21.10;79.30
30379;DHT22;17168;49.164;9.060;2023-07-16T09:19:32;21.20;80.00
30379;DHT22;17168;49.164;9.060;2023-07-16T09:22:04;21.30;80.80
30379;DHT22;17168;49.164;9.060;2023-07-16T09:24:44;21.30;80.80
30379;DHT22;17168;49.164;9.060;2023-07-16T09:27:17;21.40;81.00
30379;DHT22;17168;49.164;9.060;2023-07-16T09:29:49;21.40;77.30
30379;DHT22;17168;49.164;9.060;2023-07-16T09:32:23;21.50;77.30
30379;DHT22;17168;49.164;9.060;2023-07-16T09:35:07;21.50;77.10
30379;DHT22;17168;49.164;9.060;2023-07-16T09:37:39;21.60;76.70
30379;DHT22;17168;49.164;9.060;2023-07-16T09:40:14;21.60;74.80
30379;DHT22;17168;49.164;9.060;2023-07-16T09:42:47;21.70;76.20
30379;DHT22;17168;49.164;9.060;2023-07-16T09:45:20;21.70;75.80
30379;DHT22;17168;49.164;9.060;2023-07-16T09:47:52;21.80;74.20
30379;DHT22;17168;49.164;9.060;2023-07-16T09:50:27;21.90;72.00
30379;DHT22;17168;49.164;9.060;2023-07-16T09:53:00;21.90;72.60
30379;DHT22;17168;49.164;9.060;2023-07-16T09:55:38;22.00;70.90
30379;DHT22;17168;49.164;9.060;2023-07-16T09:58:11;22.10;70.50
30379;DHT22;17168;49.164;9.060;2023-07-16T10:00:44;22.10;71.30
30379;DHT22;17168;49.164;9.060;2023-07-16T10:03:17;22.20;71.60
30379;DHT22;17168;49.164;9.060;2023-07-16T10:05:50;22.20;71.50
30379;DHT22;17168;49.164;9.060;2023-07-16T10:08:23;22.30;72.40
30379;DHT22;17168;49.164;9.060;2023-07-16T10:10:58;22.40;73.40
30379;DHT22;17168;49.164;9.060;2023-07-16T10:13:30;22.40;73.20
30379;DHT22;17168;49.164;9.060;2023-07-16T10:16:02;22.40;72.90
30379;DHT22;17168;49.164;9.060;2023-07-16T10:18:35;22.50;73.10
30379;DHT22;17168;49.164;9.060;2023-07-16T10:21:08;22.50;73.40
30379;DHT22;17168;49.164;9.060;2023-07-16T10:23:42;22.60;72.90
30379;DHT22;17168;49.164;9.060;2023-07-16T10:26:17;22.60;72.80
30379;DHT22;17168;49.164;9.060;2023-07-16T10:28:51;22.60;73.30
30379;DHT22;17168;49.164;9.060;2023-07-16T10:31:24;22.60;72.60
30379;DHT22;17168;49.164;9.060;2023-07-16T10:34:00;22.60;72.00
30379;DHT22;17168;49.164;9.060;2023-07-16T10:36:37;22.60;71.30
30379;DHT22;17168;49.164;9.060;2023-07-16T10:39:09;22.70;71.60
30379;DHT22;17168;49.164;9.060;2023-07-16T10:41:44;22.70;72.20
30379;DHT22;17168;49.164;9.060;2023-07-16T10:44:16;22.80;71.20
30379;DHT22;17168;49.164;9.060;2023-07-16T10:46:49;22.80;71.30
30379;DHT22;17168;49.164;9.060;2023-07-16T10:49:27;22.80;71.50
30379;DHT22;17168;49.164;9.060;2023-07-16T10:52:00;22.80;70.60
30379;DHT22;17168;49.164;9.060;2023-07-16T10:54:33;22.80;70.10
30379;DHT22;17168;49.164;9.060;2023-07-16T10:57:08;22.80;70.30
30379;DHT22;17168;49.164;9.060;2023-07-16T10:59:41;22.90;71.20
30379;DHT22;17168;49.164;9.060;2023-07-16T11:02:14;22.90;69.70
30379;DHT22;17168;49.164;9.060;2023-07-16T11:04:47;22.90;68.60
30379;DHT22;17168;49.164;9.060;2023-07-16T11:07:20;22.90;69.20
30379;DHT22;17168;49.164;9.060;2023-07-16T11:09:54;22.90;67.50
30379;DHT22;17168;49.164;9.060;2023-07-16T11:12:29;22.90;67.00
30379;DHT22;17168;49.164;9.060;2023-07-16T11:15:02;22.90;67.80
30379;DHT22;17168;49.164;9.060;2023-07-16T11:17:37;23.00;68.90
30379;DHT22;17168;49.164;9.060;2023-07-16T11:20:11;23.00;68.20
30379;DHT22;17168;49.164;9.060;2023-07-16T11:22:46;23.10;67.50
30379;DHT22;17168;49.164;9.060;2023-07-16T11:25:19;23.10;67.50
30379;DHT22;17168;49.164;9.060;2023-07-16T11:27:57;23.20;67.60
30379;DHT22;17168;49.164;9.060;2023-07-16T11:30:29;23.20;66.10
30379;DHT22;17168;49.164;9.060;2023-07-16T11:33:01;23.30;64.70
30379;DHT22;17168;49.164;9.060;2023-07-16T11:35:34;23.30;65.00
30379;DHT22;17168;49.164;9.060;2023-07-16T11:38:06;23.40;64.50
30379;DHT22;17168;49.164;9.060;2023-07-16T11:40:39;23.40;66.00
30379;DHT22;17168;49.164;9.060;2023-07-16T11:43:13;23.40;64.20
30379;DHT22;17168;49.164;9.060;2023-07-16T11:45:48;23.40;64.40
30379;DHT22;17168;49.164;9.060;2023-07-16T11:48:20;23.50;64.80
30379;DHT22;17168;49.164;9.060;2023-07-16T11:50:53;23.60;64.60
30379;DHT22;17168;49.164;9.060;2023-07-16T11:53:25;23.60;63.10
30379;DHT22;17168;49.164;9.060;2023-07-16T11:55:58;23.60;63.20
30379;DHT22;17168;49.164;9.060;2023-07-16T11:58:33;23.70;62.60
30379;DHT22;17168;49.164;9.060;2023-07-16T12:01:05;23.80;64.10
30379;DHT22;17168;49.164;9.060;2023-07-16T12:03:37;23.90;63.30
30379;DHT22;17168;49.164;9.060;2023-07-16T12:06:10;24.00;62.80
30379;DHT22;17168;49.164;9.060;2023-07-16T12:08:42;24.30;62.30
30379;DHT22;17168;49.164;9.060;2023-07-16T12:11:14;24.70;61.70
30379;DHT22;17168;49.164;9.060;2023-07-16T12:13:49;25.20;61.40
30379;DHT22;17168;49.164;9.060;2023-07-16T12:16:21;25.60;58.60
30379;DHT22;17168;49.164;9.060;2023-07-16T12:18:54;26.00;58.50
30379;DHT22;17168;49.164;9.060;2023-07-16T12:21:26;26.30;56.60
30379;DHT22;17168;49.164;9.060;2023-07-16T12:23:58;26.50;56.40
30379;DHT22;17168;49.164;9.060;2023-07-16T12:26:31;26.70;55.30
30379;DHT22;17168;49.164;9.060;2023-07-16T12:29:06;26.90;55.00
30379;DHT22;17168;49.164;9.060;2023-07-16T12:31:38;27.10;55.30
30379;DHT22;17168;49.164;9.060;2023-07-16T12:34:10;27.30;54.20
30379;DHT22;17168;49.164;9.060;2023-07-16T12:36:42;27.50;53.30
30379;DHT22;17168;49.164;9.060;2023-07-16T12:39:15;27.70;53.60
30379;DHT22;17168;49.164;9.060;2023-07-16T12:41:47;27.90;52.00
30379;DHT22;17168;49.164;9.060;2023-07-16T12:44:22;27.90;52.40
30379;DHT22;17168;49.164;9.060;2023-07-16T12:46:54;28.00;51.60
30379;DHT22;17168;49.164;9.060;2023-07-16T12:49:27;28.10;52.80
30379;DHT22;17168;49.164;9.060;2023-07-16T12:51:59;28.20;52.40
30379;DHT22;17168;49.164;9.060;2023-07-16T12:54:31;28.20;50.90
30379;DHT22;17168;49.164;9.060;2023-07-16T12:57:17;28.20;50.90
30379;DHT22;17168;49.164;9.060;2023-07-16T13:00:12;28.20;50.80
30379;DHT22;17168;49.164;9.060;2023-07-16T13:02:45;28.20;50.80
30379;DHT22;17168;49.164;9.060;2023-07-16T13:05:20;28.10;50.40
30379;DHT22;17168;49.164;9.060;2023-07-16T13:08:16;28.00;50.90
30379;DHT22;17168;49.164;9.060;2023-07-16T13:11:05;28.10;50.90
30379;DHT22;17168;49.164;9.060;2023-07-16T13:14:06;28.00;50.00
30379;DHT22;17168;49.164;9.060;2023-07-16T13:16:43;28.00;50.70
30379;DHT22;17168;49.164;9.060;2023-07-16T13:19:16;28.00;50.40
30379;DHT22;17168;49.164;9.060;2023-07-16T13:21:50;28.00;50.80
30379;DHT22;17168;49.164;9.060;2023-07-16T13:24:25;28.00;50.20
30379;DHT22;17168;49.164;9.060;2023-07-16T13:26:57;27.90;49.80
30379;DHT22;17168;49.164;9.060;2023-07-16T13:29:30;27.90;50.90
30379;DHT22;17168;49.164;9.060;2023-07-16T13:32:07;28.00;50.50
30379;DHT22;17168;49.164;9.060;2023-07-16T13:34:41;28.10;50.80
30379;DHT22;17168;49.164;9.060;2023-07-16T13:37:13;28.20;50.10
30379;DHT22;17168;49.164;9.060;2023-07-16T13:39:46;28.30;49.90
30379;DHT22;17168;49.164;9.060;2023-07-16T13:42:18;28.40;50.10
30379;DHT22;17168;49.164;9.060;2023-07-16T13:44:55;28.50;49.30
30379;DHT22;17168;49.164;9.060;2023-07-16T13:47:29;28.50;48.00
30379;DHT22;17168;49.164;9.060;2023-07-16T13:50:02;28.50;48.50
30379;DHT22;17168;49.164;9.060;2023-07-16T13:52:35;28.50;48.70
30379;DHT22;17168;49.164;9.060;2023-07-16T13:55:07;28.40;48.60
30379;DHT22;17168;49.164;9.060;2023-07-16T13:57:39;28.30;48.40
30379;DHT22;17168;49.164;9.060;2023-07-16T14:00:13;28.30;48.90
30379;DHT22;17168;49.164;9.060;2023-07-16T14:02:51;28.30;47.90
30379;DHT22;17168;49.164;9.060;2023-07-16T14:05:23;28.30;47.60
30379;DHT22;17168;49.164;9.060;2023-07-16T14:07:55;28.30;48.20
30379;DHT22;17168;49.164;9.060;2023-07-16T14:10:27;28.30;48.60
30379;DHT22;17168;49.164;9.060;2023-07-16T14:13:00;28.30;48.60
30379;DHT22;17168;49.164;9.060;2023-07-16T14:15:32;28.20;48.00
30379;DHT22;17168;49.164;9.060;2023-07-16T14:18:06;28.30;47.70
30379;DHT22;17168;49.164;9.060;2023-07-16T14:20:39;28.20;47.70
30379;DHT22;17168;49.164;9.060;2023-07-16T14:23:11;28.10;48.20
30379;DHT22;17168;49.164;9.060;2023-07-16T14:25:43;28.10;48.50
30379;DHT22;17168;49.164;9.060;2023-07-16T14:28:16;28.20;48.30
30379;DHT22;17168;49.164;9.060;2023-07-16T14:30:48;28.20;48.40
30379;DHT22;17168;49.164;9.060;2023-07-16T14:33:23;28.20;48.00
30379;DHT22;17168;49.164;9.060;2023-07-16T14:35:55;28.20;47.80
30379;DHT22;17168;49.164;9.060;2023-07-16T14:38:27;28.20;47.80
30379;DHT22;17168;49.164;9.060;2023-07-16T14:40:59;28.20;47.50
30379;DHT22;17168;49.164;9.060;2023-07-16T14:43:32;28.20;47.90
30379;DHT22;17168;49.164;9.060;2023-07-16T14:46:04;28.20;47.40
30379;DHT22;17168;49.164;9.060;2023-07-16T14:48:40;28.20;48.20
30379;DHT22;17168;49.164;9.060;2023-07-16T14:51:12;28.10;47.60
30379;DHT22;17168;49.164;9.060;2023-07-16T14:53:45;28.10;46.90
30379;DHT22;17168;49.164;9.060;2023-07-16T14:56:17;28.10;47.20
30379;DHT22;17168;49.164;9.060;2023-07-16T14:58:50;28.10;46.90
30379;DHT22;17168;49.164;9.060;2023-07-16T15:01:22;28.10;47.50
30379;DHT22;17168;49.164;9.060;2023-07-16T15:03:57;28.10;47.40
30379;DHT22;17168;49.164;9.060;2023-07-16T15:06:29;28.00;47.70
30379;DHT22;17168;49.164;9.060;2023-07-16T15:09:01;28.00;47.70
30379;DHT22;17168;49.164;9.060;2023-07-16T15:11:34;28.00;47.60
30379;DHT22;17168;49.164;9.060;2023-07-16T15:14:06;27.90;47.20
30379;DHT22;17168;49.164;9.060;2023-07-16T15:16:40;27.80;47.30
30379;DHT22;17168;49.164;9.060;2023-07-16T15:19:15;27.70;47.20
30379;DHT22;17168;49.164;9.060;2023-07-16T15:21:50;27.70;47.90
30379;DHT22;17168;49.164;9.060;2023-07-16T15:24:22;27.60;48.10
30379;DHT22;17168;49.164;9.060;2023-07-16T15:26:54;27.60;48.40
30379;DHT22;17168;49.164;9.060;2023-07-16T15:29:29;27.40;48.10
30379;DHT22;17168;49.164;9.060;2023-07-16T15:32:03;27.40;47.50
30379;DHT22;17168;49.164;9.060;2023-07-16T15:34:38;27.30;47.80
30379;DHT22;17168;49.164;9.060;2023-07-16T15:37:10;27.20;47.80
30379;DHT22;17168;49.164;9.060;2023-07-16T15:39:43;27.10;47.50
30379;DHT22;17168;49.164;9.060;2023-07-16T15:42:15;27.00;47.50
30379;DHT22;17168;49.164;9.060;2023-07-16T15:44:47;26.90;47.80
30379;DHT22;17168;49.164;9.060;2023-07-16T15:47:19;26.90;47.90
30379;DHT22;17168;49.164;9.060;2023-07-16T15:49:54;26.90;48.20
30379;DHT22;17168;49.164;9.060;2023-07-16T15:52:27;26.90;48.00
30379;DHT22;17168;49.164;9.060;2023-07-16T15:54:59;27.00;48.20
30379;DHT22;17168;49.164;9.060;2023-07-16T15:57:31;27.20;48.30
30379;DHT22;17168;49.164;9.060;2023-07-16T16:00:05;27.20;48.00
30379;DHT22;17168;49.164;9.060;2023-07-16T16:02:46;27.30;47.70
30379;DHT22;17168;49.164;9.060;2023-07-16T16:05:21;27.40;47.50
30379;DHT22;17168;49.164;9.060;2023-07-16T16:08:12;27.40;47.20